PAGY/SGY METAR and TAF weather

Enter ICAO airport designator
Station Type Date Time Source
PAGY METAR 2021/10/20 05:53 UTC NOAA

PAGY 200553Z AUTO 00000KT 10SM -RA OVC065 04/03 A2962 RMK AO2 SLP029 P0000 60003 T00390033 10056 20039 58009 TSNO


Station Type Date Time Source
PAGY Decoded METAR 2021/10/20 05:53 UTC NOAA

SKAGWAY AIRPORT, AK, United States (PAGY) 59-28N 135-19W 5M
Oct 20, 2021 - 01:53 AM EDT / 2021.10.20 0553 UTC
Wind: Calm:0
Visibility: 10 mile(s):0
Sky conditions: overcast
Weather: light rain
Precipitation last hour: A trace
Temperature: 39.0 F (3.9 C)
Dew Point: 37.9 F (3.3 C)
Relative Humidity: 95%
Pressure (altimeter): 29.62 in. Hg (1003 hPa)
Pressure tendency: 0.03 inches (0.9 hPa) lower than three hours ago
ob: PAGY 200553Z AUTO 00000KT 10SM -RA OVC065 04/03 A2962 RMK AO2 SLP029 P0000 60003 T00390033 10056 20039 58009 TSNO
cycle: 6

Station Type Date Time Source
PAGY TAF 2021/10/20 06:27 UTC NOAA

TAF PAGY 200525Z 2006/2106 VRB06KT P6SM -RA OVC060
FM201000 04008G15KT P6SM OVC100
FM202000 04008KT P6SM VCSH SCT050 OVC080
AMD LTD TO CLD VIS AND WIND

Example: see airport list